createdAt,value
2023-04-18T00:00:36.765Z,44.80
2023-04-18T00:05:41.570Z,45.47
2023-04-18T00:10:45.001Z,46.19
2023-04-18T00:15:48.700Z,45.89
2023-04-18T00:20:53.573Z,45.62
2023-04-18T00:25:57.047Z,45.53
2023-04-18T00:31:00.624Z,46.56
2023-04-18T00:36:06.596Z,46.05
2023-04-18T00:41:10.868Z,45.88
2023-04-18T00:46:14.969Z,45.69
2023-04-18T00:51:20.099Z,46.03
2023-04-18T00:56:25.819Z,46.13
2023-04-18T01:01:29.378Z,46.12
2023-04-18T01:06:34.608Z,46.44
2023-04-18T01:11:38.029Z,46.60
2023-04-18T01:16:41.743Z,46.87
2023-04-18T01:21:47.298Z,46.36
2023-04-18T01:26:52.249Z,46.26
2023-04-18T01:31:55.741Z,46.19
2023-04-18T01:36:59.139Z,46.67
2023-04-18T01:42:04.094Z,47.73
2023-04-18T01:47:07.521Z,48.13
2023-04-18T01:52:14.092Z,48.84
2023-04-18T01:57:18.984Z,47.75
2023-04-18T02:02:22.899Z,48.31
2023-04-18T02:07:26.432Z,49.02
2023-04-18T02:12:34.178Z,48.75
2023-04-18T02:17:37.929Z,50.30
2023-04-18T02:22:41.453Z,50.93
2023-04-18T02:27:46.326Z,49.96
2023-04-18T02:32:52.947Z,50.03
2023-04-18T02:38:00.599Z,50.22
2023-04-18T02:43:05.728Z,49.34
2023-04-18T02:48:09.330Z,49.64
2023-04-18T02:53:12.965Z,49.81
2023-04-18T02:58:30.465Z,49.39
2023-04-18T03:03:56.686Z,50.74
2023-04-18T03:09:13.852Z,51.19
2023-04-18T03:14:23.610Z,50.99
2023-04-18T03:19:31.838Z,51.83
2023-04-18T03:24:41.126Z,51.64
2023-04-18T03:29:47.561Z,51.34
2023-04-18T03:34:52.992Z,51.89
2023-04-18T03:39:57.177Z,51.24
2023-04-18T03:45:05.699Z,50.85
2023-04-18T03:50:11.891Z,50.70
2023-04-18T03:55:17.211Z,50.52
2023-04-18T04:00:22.135Z,51.77
2023-04-18T04:05:35.768Z,51.50
2023-04-18T04:10:39.508Z,50.71
2023-04-18T04:15:44.653Z,50.42
2023-04-18T04:20:49.254Z,51.32
2023-04-18T04:26:06.701Z,51.03
2023-04-18T04:31:22.199Z,49.99
2023-04-18T04:36:27.850Z,50.63
2023-04-18T04:41:37.592Z,50.37
2023-04-18T04:46:44.849Z,50.38
2023-04-18T04:51:55.088Z,50.67
2023-04-18T04:56:58.650Z,50.05
2023-04-18T05:02:03.997Z,50.10
2023-04-18T05:07:07.669Z,49.97
2023-04-18T05:12:11.135Z,48.87
2023-04-18T05:17:15.930Z,48.72
2023-04-18T05:22:19.538Z,49.61
2023-04-18T05:27:23.101Z,49.08
2023-04-18T05:32:27.983Z,50.29
2023-04-18T05:37:31.459Z,49.36
2023-04-18T05:42:34.972Z,48.58
2023-04-18T05:47:40.225Z,48.77
2023-04-18T05:52:43.844Z,48.87
2023-04-18T05:57:47.494Z,48.56
2023-04-18T06:02:52.469Z,48.13
2023-04-18T06:07:56.086Z,48.07
2023-04-18T06:12:59.550Z,47.77
2023-04-18T06:18:04.359Z,47.97
2023-04-18T06:23:08.182Z,47.64
2023-04-18T06:28:11.604Z,48.09
2023-04-18T06:33:16.480Z,47.85
2023-04-18T06:38:20.057Z,48.37
2023-04-18T06:43:23.452Z,47.56
2023-04-18T06:48:28.714Z,47.36
2023-04-18T06:53:32.183Z,47.96
2023-04-18T06:58:35.690Z,47.49
2023-04-18T07:03:40.657Z,46.86
2023-04-18T07:08:44.117Z,47.29
2023-04-18T07:13:48.688Z,46.50
2023-04-18T07:18:53.573Z,45.93
2023-04-18T07:23:57.056Z,46.41
2023-04-18T07:29:00.549Z,45.41
2023-04-18T07:34:05.711Z,45.45
2023-04-18T07:39:09.380Z,44.98
2023-04-18T07:44:13.012Z,44.14
2023-04-18T07:49:17.948Z,45.43
2023-04-18T07:54:21.482Z,44.61
2023-04-18T07:59:24.882Z,44.51
2023-04-18T08:04:30.620Z,45.29
2023-04-18T08:09:34.242Z,44.18
2023-04-18T08:14:37.805Z,43.60
2023-04-18T08:19:44.360Z,43.74
2023-04-18T08:25:01.433Z,41.70
2023-04-18T08:30:08.787Z,41.05
2023-04-18T08:35:13.653Z,40.20
2023-04-18T08:40:18.557Z,40.24
2023-04-18T08:45:22.218Z,39.71
2023-04-18T08:50:27.125Z,39.19
2023-04-18T08:55:30.679Z,39.77
2023-04-18T09:00:35.262Z,38.26
2023-04-18T09:05:40.195Z,36.65
2023-04-18T09:10:46.468Z,36.44
2023-04-18T09:15:56.085Z,36.52
2023-04-18T09:21:18.510Z,37.12
2023-04-18T09:26:34.710Z,36.67
2023-04-18T09:31:55.807Z,36.63
2023-04-18T09:37:11.324Z,37.03
2023-04-18T09:42:14.945Z,37.08
2023-04-18T09:47:18.352Z,36.94
2023-04-18T09:52:24.762Z,36.11
2023-04-18T09:57:29.802Z,36.41
2023-04-18T10:02:42.212Z,35.76
2023-04-18T10:07:48.482Z,34.95
2023-04-18T10:12:55.221Z,36.21
2023-04-18T10:18:05.190Z,34.49
2023-04-18T10:23:37.791Z,35.75
2023-04-18T10:28:52.877Z,35.08
2023-04-18T10:39:22.802Z,35.41
2023-04-18T10:44:27.469Z,34.83
2023-04-18T10:49:34.191Z,34.33
2023-04-18T10:54:40.021Z,37.25
2023-04-18T10:59:44.379Z,33.78
2023-04-18T11:04:50.916Z,33.82
2023-04-18T11:09:56.076Z,33.85
2023-04-18T11:15:01.389Z,33.50
2023-04-18T11:20:09.046Z,33.04
2023-04-18T11:25:14.619Z,33.89
2023-04-18T11:30:18.520Z,33.00
2023-04-18T11:35:22.150Z,32.73
2023-04-18T11:40:27.172Z,31.66
2023-04-18T11:45:31.198Z,31.43
2023-04-18T11:50:38.262Z,31.88
2023-04-18T11:55:43.191Z,32.11
2023-04-18T12:00:46.623Z,31.46
2023-04-18T12:05:59.707Z,30.62
2023-04-18T12:11:04.995Z,30.04
2023-04-18T12:16:08.917Z,30.51
2023-04-18T12:21:12.412Z,29.61
2023-04-18T12:26:18.613Z,29.69
2023-04-18T12:31:22.569Z,30.49
2023-04-18T12:36:28.370Z,29.57
2023-04-18T12:41:33.377Z,29.93
2023-04-18T12:46:36.947Z,29.27
2023-04-18T12:51:40.899Z,29.69
2023-04-18T12:56:46.200Z,29.57
2023-04-18T13:01:49.674Z,30.14
2023-04-18T13:06:53.121Z,29.63
2023-04-18T13:11:58.483Z,29.11
2023-04-18T13:17:01.990Z,28.29
2023-04-18T13:22:05.773Z,29.42
2023-04-18T13:27:11.307Z,29.08
2023-04-18T13:32:14.753Z,28.38
2023-04-18T13:37:18.408Z,29.04
2023-04-18T13:42:23.248Z,29.04
2023-04-18T13:47:26.917Z,28.73
2023-04-18T13:52:30.411Z,27.41
2023-04-18T13:57:37.186Z,28.11
2023-04-18T14:02:40.896Z,27.70
2023-04-18T14:07:44.511Z,28.00
2023-04-18T14:12:49.312Z,29.28
2023-04-18T14:17:52.788Z,29.20
2023-04-18T14:22:56.378Z,28.32
2023-04-18T14:28:09.365Z,28.45
2023-04-18T14:33:12.864Z,28.55
2023-04-18T14:38:16.491Z,27.77
2023-04-18T14:43:21.399Z,29.19
2023-04-18T14:48:24.891Z,28.65
2023-04-18T14:53:28.372Z,28.98
2023-04-18T14:58:33.166Z,28.52
2023-04-18T15:03:36.687Z,28.60
2023-04-18T15:08:40.574Z,27.84
2023-04-18T15:13:47.513Z,28.56
2023-04-18T15:18:50.988Z,29.78
2023-04-18T15:23:54.460Z,30.15
2023-04-18T15:28:59.892Z,29.54
2023-04-18T15:34:03.761Z,29.56
2023-04-18T15:39:09.039Z,30.49
2023-04-18T15:44:14.477Z,30.98
2023-04-18T15:49:18.017Z,32.04
2023-04-18T15:54:21.519Z,32.59
2023-04-18T15:59:26.312Z,32.51
2023-04-18T16:04:29.875Z,33.13
2023-04-18T16:09:33.310Z,33.17
2023-04-18T16:14:38.157Z,33.95
2023-04-18T16:19:41.650Z,35.43
2023-04-18T16:24:45.032Z,33.78
2023-04-18T16:29:49.845Z,34.40
2023-04-18T16:34:53.234Z,34.99
2023-04-18T16:39:56.668Z,35.71
2023-04-18T16:45:02.677Z,36.22
2023-04-18T16:50:09.123Z,36.77
2023-04-18T16:55:12.581Z,36.60
2023-04-18T17:00:17.858Z,37.60
2023-04-18T17:05:22.986Z,38.31
2023-04-18T17:10:26.575Z,38.79
2023-04-18T17:15:31.816Z,37.86
2023-04-18T17:20:36.007Z,37.63
2023-04-18T17:25:39.417Z,37.86
2023-04-18T17:30:44.302Z,37.65
2023-04-18T17:35:48.144Z,37.99
2023-04-18T17:40:59.004Z,37.94
2023-04-18T17:46:04.082Z,38.37
2023-04-18T17:51:07.763Z,38.38
2023-04-18T17:56:11.268Z,38.84
2023-04-18T18:01:16.673Z,39.45
2023-04-18T18:06:20.550Z,39.68
2023-04-18T18:11:24.330Z,39.04
2023-04-18T18:16:29.442Z,39.77
2023-04-18T18:21:32.936Z,39.02
2023-04-18T18:26:36.911Z,40.11
2023-04-18T18:31:42.583Z,39.12
2023-04-18T18:36:46.173Z,38.99
2023-04-18T18:41:49.691Z,39.21
2023-04-18T18:46:54.592Z,39.32
2023-04-18T18:51:58.074Z,39.39
2023-04-18T18:57:02.559Z,40.20
2023-04-18T19:02:07.981Z,40.72
2023-04-18T19:07:11.446Z,39.87
2023-04-18T19:12:14.915Z,40.34
2023-04-18T19:17:21.878Z,40.63
2023-04-18T19:22:25.511Z,41.33
2023-04-18T19:27:28.990Z,41.00
2023-04-18T19:32:33.821Z,40.22
2023-04-18T19:37:37.227Z,40.00
2023-04-18T19:42:40.869Z,40.35
2023-04-18T19:47:47.569Z,39.78
2023-04-18T19:52:54.598Z,39.01
2023-04-18T19:57:58.024Z,39.24
2023-04-18T20:03:02.991Z,39.79
2023-04-18T20:08:07.165Z,39.69
2023-04-18T20:13:10.596Z,40.13
2023-04-18T20:18:15.408Z,39.15
2023-04-18T20:23:19.068Z,38.90
2023-04-18T20:28:22.477Z,38.21
2023-04-18T20:33:27.305Z,38.70
2023-04-18T20:38:30.885Z,39.55
2023-04-18T20:43:37.492Z,39.18
2023-04-18T20:48:43.855Z,39.12
2023-04-18T20:53:47.272Z,39.06
2023-04-18T20:58:50.682Z,39.64
2023-04-18T21:03:55.653Z,39.08
2023-04-18T21:08:59.270Z,38.41
2023-04-18T21:14:03.771Z,38.92
2023-04-18T21:19:08.717Z,38.87
2023-04-18T21:24:12.317Z,39.06
2023-04-18T21:29:15.896Z,39.88
2023-04-18T21:34:20.823Z,39.46
2023-04-18T21:39:24.319Z,40.16
2023-04-18T21:44:27.697Z,40.79
2023-04-18T21:49:32.867Z,39.65
2023-04-18T21:54:36.305Z,39.57
2023-04-18T21:59:39.703Z,37.92
2023-04-18T22:04:44.464Z,37.22
2023-04-18T22:09:47.979Z,36.88
2023-04-18T22:14:52.722Z,35.51
2023-04-18T22:19:57.682Z,34.41
2023-04-18T22:25:01.104Z,34.67
2023-04-18T22:30:05.229Z,33.99
2023-04-18T22:35:10.902Z,33.99
2023-04-18T22:40:15.620Z,35.95
2023-04-18T22:45:19.358Z,36.05
2023-04-18T22:50:24.077Z,35.33
2023-04-18T22:55:27.464Z,35.56
2023-04-18T23:00:30.848Z,34.79
2023-04-18T23:05:35.564Z,35.10
2023-04-18T23:10:38.980Z,35.71
2023-04-18T23:15:42.558Z,35.35
2023-04-18T23:20:47.601Z,33.02
2023-04-18T23:25:51.005Z,31.55
2023-04-18T23:30:54.404Z,33.11
2023-04-18T23:35:59.205Z,32.59
2023-04-18T23:41:02.560Z,33.15
2023-04-18T23:46:06.203Z,32.29
2023-04-18T23:51:11.143Z,30.98
2023-04-18T23:56:14.540Z,30.79
